European Highlander — C6SN6 — position and weather

sailwx.info

Track history (hours):
 
Tides and Currents Weather Stations Pressure Air Temp Water Temp Dewpoint Dewpoint Depression Visibility Wind Speed Wind Dir Waves Ship Positions

European Highlander

Operator: P&O Irish Sea Ltd

Last reported at 2019-Sep-21 00:20 UTC. Time now 2019-Sep-21 01:18 UTC.
Position N 55°01' W 005°12'.

Length 161 m; draft 5.5 m.

Type: Ship. MMSI: 311404000.

Date/timePositionNaut miles runAvg speedWind from/ knotsBaromVisibWave heightAir tempDewpointWater temp
2019-Sep-21 00:20N 55°01' W 005°12'716.6
2019-Sep-20 23:55N 54°58' W 005°22'716.3
2019-Sep-20 23:28N 54°55' W 005°34'915.7
2019-Sep-20 22:55N 54°51' W 005°48'0 0.2
2019-Sep-20 22:11N 54°51' W 005°48'0 0.0
2019-Sep-20 21:47N 54°51' W 005°48'0 0.0
2019-Sep-20 21:29N 54°51' W 005°48'0 0.0
2019-Sep-20 20:57N 54°51' W 005°48'611.0
2019-Sep-20 20:27N 54°54' W 005°40'1117.5
2019-Sep-20 19:51N 54°58' W 005°23'6 1.8
2019-Sep-20 16:14N 55°01' W 005°13'520.7
2019-Sep-20 16:00N 54°59' W 005°21'1020.2
2019-Sep-20 15:30N 54°55' W 005°37'714.9
2019-Sep-20 15:01N 54°51' W 005°48'0 0.1
2019-Sep-20 14:31N 54°51' W 005°48'0 0.0
2019-Sep-20 14:00N 54°51' W 005°48'0 0.0
2019-Sep-20 13:30N 54°51' W 005°48'0 0.0
2019-Sep-20 13:00N 54°51' W 005°48'4 8.8
2019-Sep-20 12:31N 54°53' W 005°42'918.2
2019-Sep-20 12:00N 54°57' W 005°27'4 1.0
2019-Sep-20 07:59N 54°59' W 005°21'918.1
2019-Sep-20 07:30N 54°55' W 005°35'816.7
2019-Sep-20 07:00N 54°51' W 005°48'0 0.4
2019-Sep-20 06:30N 54°51' W 005°48'0 0.0
2019-Sep-20 06:00N 54°51' W 005°48'0 0.0
2019-Sep-20 05:30N 54°51' W 005°48'0 0.0
2019-Sep-20 04:57N 54°51' W 005°48'612.4
2019-Sep-20 04:30N 54°54' W 005°40'1122.5
2019-Sep-20 04:00N 54°59' W 005°22'12 3.6
2019-Sep-20 00:47N 54°58' W 005°02'614.2
2019-Sep-20 00:22N 55°01' W 005°11'617.7
2019-Sep-20 00:00N 54°58' W 005°20'918.4
2019-Sep-19 23:30N 54°54' W 005°35'816.0
2019-Sep-19 23:01N 54°51' W 005°48'0 0.1
2019-Sep-19 22:07N 54°51' W 005°48'0 0.0
2019-Sep-19 21:55N 54°51' W 005°48'0 0.0
2019-Sep-19 21:10N 54°51' W 005°48'0 0.0
2019-Sep-19 20:54N 54°51' W 005°48'410.4
2019-Sep-19 20:30N 54°53' W 005°42'917.5
2019-Sep-19 20:00N 54°57' W 005°29'917.5
2019-Sep-19 19:30N 55°01' W 005°14'6 2.0
2019-Sep-19 16:35N 55°00' W 005°04'415.2
2019-Sep-19 16:20N 55°01' W 005°11'618.8
2019-Sep-19 16:01N 54°59' W 005°21'917.9
2019-Sep-19 15:30N 54°55' W 005°35'816.5
2019-Sep-19 15:00N 54°51' W 005°48'0 0.5
2019-Sep-19 14:29N 54°51' W 005°48'0 0.0
2019-Sep-19 14:00N 54°51' W 005°48'0 0.0
2019-Sep-19 13:30N 54°51' W 005°48'0 0.0
2019-Sep-19 12:53N 54°51' W 005°48'4 9.6
2019-Sep-19 12:30N 54°53' W 005°43'918.0
2019-Sep-19 12:00N 54°57' W 005°29'918.0
2019-Sep-19 11:30N 55°01' W 005°14'813.4
2019-Sep-19 10:54N 54°58' W 005°01'3 1.2
2019-Sep-19 08:30N 55°00' W 005°04'816.4
2019-Sep-19 08:00N 54°59' W 005°18'1020.8
2019-Sep-19 07:30N 54°55' W 005°35'817.0
2019-Sep-19 07:00N 54°51' W 005°48'0 0.1
2019-Sep-19 06:15N 54°51' W 005°48'0 0.0
2019-Sep-19 05:30N 54°51' W 005°48'1 1.4
2019-Sep-19 05:00N 54°52' W 005°48'1020.9
2019-Sep-19 04:30N 54°56' W 005°31'1121.7
2019-Sep-19 04:01N 55°01' W 005°14'815.7
2019-Sep-19 03:30N 54°58' W 005°01'0 0.1
2019-Sep-19 01:01N 54°58' W 005°01'411.2
2019-Sep-19 00:41N 55°01' W 005°05'418.1
2019-Sep-19 00:28N 55°01' W 005°12'1021.3
2019-Sep-19 00:00N 54°56' W 005°27'1222.1
2019-Sep-18 23:29N 54°52' W 005°46'2 4.0
2019-Sep-18 23:00N 54°51' W 005°48'0 0.0
2019-Sep-18 21:54N 54°51' W 005°48'0 0.0
2019-Sep-18 21:24N 54°51' W 005°48'0 0.0
2019-Sep-18 21:00N 54°51' W 005°48'1616.4
2019-Sep-18 20:01N 54°58' W 005°23'520.6
2019-Sep-18 19:47N 55°00' W 005°15'21 4.4
2019-Sep-18 15:01N 54°51' W 005°48'0 6.0
2019-Sep-18 15:00N 54°51' W 005°48'0 0.1
2019-Sep-18 14:10N 54°51' W 005°48'0 0.0
2019-Sep-18 13:50N 54°51' W 005°48'0 0.0
2019-Sep-18 13:28N 54°51' W 005°48'0 0.0
2019-Sep-18 12:59N 54°51' W 005°48'7 1.2
2019-Sep-18 07:25N 54°54' W 005°38'615.9
2019-Sep-18 07:00N 54°51' W 005°48'0 0.0
2019-Sep-18 05:00N 54°51' W 005°48'6 1.0
2019-Sep-17 23:35N 54°53' W 005°39'518.8
2019-Sep-17 23:17N 54°51' W 005°48'0 0.3
2019-Sep-17 22:50N 54°51' W 005°48'0 0.0
2019-Sep-17 21:06N 54°51' W 005°48'1 4.8
2019-Sep-17 20:59N 54°51' W 005°48'21 4.4
2019-Sep-17 16:16N 55°01' W 005°15'520.9
2019-Sep-17 16:00N 54°58' W 005°24'1518.3
2019-Sep-17 15:09N 54°51' W 005°48'0 0.6
2019-Sep-17 14:55N 54°51' W 005°48'0 0.0
2019-Sep-17 14:27N 54°51' W 005°48'0 0.0
2019-Sep-17 13:59N 54°51' W 005°48'0 0.0
2019-Sep-17 13:28N 54°51' W 005°48'0 0.0
2019-Sep-17 12:57N 54°51' W 005°48'21 4.9
2019-Sep-17 08:35N 55°00' W 005°15'1421.7
2019-Sep-17 07:56N 54°54' W 005°37'716.3
2019-Sep-17 07:30N 54°51' W 005°48'0 0.0
2019-Sep-17 05:07N 54°51' W 005°48'0 0.7
2019-Sep-17 05:00N 54°51' W 005°48'916.8
2019-Sep-17 04:27N 54°56' W 005°35'1121.5
2019-Sep-17 03:55N 55°00' W 005°16'3 0.9
2019-Sep-17 00:17N 55°01' W 005°11'2021.5
2019-Sep-16 23:23N 54°53' W 005°41'411.3
2019-Sep-16 23:00N 54°51' W 005°48'0 0.0
2019-Sep-16 22:30N 54°51' W 005°48'0 0.0
2019-Sep-16 20:52N 54°51' W 005°48'21 4.4
2019-Sep-16 16:11N 55°00' W 005°16'2118.6
2019-Sep-16 15:04N 54°51' W 005°48'0 1.3
2019-Sep-16 14:59N 54°51' W 005°48'0 0.0
2019-Sep-16 14:21N 54°51' W 005°48'0 0.0
2019-Sep-16 12:52N 54°51' W 005°48'713.0
2019-Sep-16 12:21N 54°54' W 005°38'2 0.5
2019-Sep-16 07:37N 54°55' W 005°34'421.3
2019-Sep-16 07:26N 54°53' W 005°40'511.9
2019-Sep-16 07:00N 54°51' W 005°48'0 0.0
2019-Sep-16 06:27N 54°51' W 005°48'0 0.0
2019-Sep-16 05:57N 54°51' W 005°48'0 0.0
2019-Sep-16 05:18N 54°51' W 005°48'0 0.0
2019-Sep-16 04:58N 54°51' W 005°48'4 8.7
2019-Sep-16 04:27N 54°53' W 005°41'1018.4
2019-Sep-16 03:55N 54°58' W 005°26'817.7
2019-Sep-16 03:28N 55°02' W 005°14'8 2.8
2019-Sep-16 00:45N 54°58' W 005°02'714.6
2019-Sep-16 00:17N 55°01' W 005°13'618.4
2019-Sep-15 23:57N 54°58' W 005°23'818.3
2019-Sep-15 23:30N 54°54' W 005°35'816.0
2019-Sep-15 23:01N 54°51' W 005°48'0 0.2
2019-Sep-15 22:23N 54°51' W 005°48'0 0.0
2019-Sep-15 21:56N 54°51' W 005°48'0 0.0
2019-Sep-15 20:41N 54°51' W 005°48'20 4.5
2019-Sep-15 16:11N 54°60' W 005°16'521.0
2019-Sep-15 15:56N 54°58' W 005°25'1020.5
2019-Sep-15 15:28N 54°54' W 005°40'511.5
2019-Sep-15 14:59N 54°51' W 005°48'0 0.0
2019-Sep-15 13:39N 54°51' W 005°48'0 0.0
2019-Sep-15 13:30N 54°51' W 005°48'0 0.0
2019-Sep-15 12:49N 54°51' W 005°48'22 4.8
2019-Sep-15 08:15N 55°01' W 005°14'1218.0
2019-Sep-15 07:34N 54°55' W 005°33'318.9
2019-Sep-15 07:24N 54°54' W 005°37'716.4
2019-Sep-15 07:00N 54°51' W 005°48'0 0.2
2019-Sep-15 06:23N 54°51' W 005°48'0 0.0
2019-Sep-15 05:56N 54°51' W 005°48'0 0.0
2019-Sep-15 05:23N 54°51' W 005°48'0 0.0
2019-Sep-15 04:55N 54°51' W 005°48'912.5
2019-Sep-15 04:12N 54°55' W 005°34'617.4
2019-Sep-15 03:52N 54°58' W 005°25'8 2.4
2019-Sep-15 00:17N 55°01' W 005°11'2018.6
2019-Sep-14 23:11N 54°53' W 005°44'314.2
2019-Sep-14 22:59N 54°51' W 005°48'0 0.1
2019-Sep-14 20:44N 54°51' W 005°48'21 4.7
2019-Sep-14 16:15N 55°00' W 005°15'518.3
2019-Sep-14 15:57N 54°58' W 005°24'818.1
2019-Sep-14 15:30N 54°54' W 005°37'714.5
2019-Sep-14 15:00N 54°51' W 005°48'0 0.2
2019-Sep-14 14:29N 54°51' W 005°48'0 0.0
2019-Sep-14 13:55N 54°51' W 005°48'0 0.0
2019-Sep-14 13:28N 54°51' W 005°48'0 0.0
2019-Sep-14 12:58N 54°51' W 005°48'1513.3
2019-Sep-14 11:51N 54°58' W 005°25'8 2.1
2019-Sep-14 08:08N 55°01' W 005°13'218.0
2019-Sep-14 08:00N 54°60' W 005°17'1018.9
2019-Sep-14 07:29N 54°56' W 005°33'1017.9
2019-Sep-14 06:56N 54°51' W 005°48'0 0.1
2019-Sep-14 05:43N 54°51' W 005°48'0 0.0
2019-Sep-14 05:28N 54°51' W 005°48'0 0.0
2019-Sep-14 04:58N 54°51' W 005°48'511.2
2019-Sep-14 04:29N 54°54' W 005°40'917.2
2019-Sep-14 03:56N 54°58' W 005°25'5 1.4
2019-Sep-14 00:03N 55°00' W 005°17'120.7
2019-Sep-14 00:00N 54°60' W 005°18'1220.4
2019-Sep-13 23:25N 54°55' W 005°37'716.1
2019-Sep-13 22:58N 54°51' W 005°48'0 0.1
2019-Sep-13 21:01N 54°51' W 005°48'0 0.0
2019-Sep-13 21:00N 54°51' W 005°48'612.6
2019-Sep-13 20:29N 54°54' W 005°38'15 3.5
2019-Sep-13 16:15N 55°00' W 005°15'1417.9
2019-Sep-13 15:26N 54°54' W 005°37'715.6
2019-Sep-13 15:00N 54°51' W 005°48'0 0.1
2019-Sep-13 12:50N 54°51' W 005°48'21 4.5
2019-Sep-13 08:09N 55°00' W 005°15'1120.2
2019-Sep-13 07:35N 54°55' W 005°33'321.0
2019-Sep-13 07:26N 54°54' W 005°37'715.1
2019-Sep-13 07:00N 54°51' W 005°48'0 0.0
2019-Sep-13 05:35N 54°51' W 005°48'0 0.0
2019-Sep-13 05:25N 54°51' W 005°48'410.3
2019-Sep-13 04:59N 54°53' W 005°42'1021.3
2019-Sep-13 04:30N 54°58' W 005°25'7 2.0
2019-Sep-13 01:00N 55°01' W 005°14'2220.6
2019-Sep-12 23:57N 54°51' W 005°48'0 0.2
2019-Sep-12 23:25N 54°51' W 005°48'0 0.0
2019-Sep-12 21:01N 54°51' W 005°48'0 0.5
2019-Sep-12 20:56N 54°51' W 005°48'21 4.6
2019-Sep-12 16:18N 55°00' W 005°14'1217.7
2019-Sep-12 15:37N 54°55' W 005°34'916.1
2019-Sep-12 15:03N 54°51' W 005°48'0 3.2
2019-Sep-12 15:00N 54°51' W 005°48'0 0.1
2019-Sep-12 14:22N 54°51' W 005°48'0 0.0
2019-Sep-12 13:31N 54°51' W 005°48'0 0.0
2019-Sep-12 13:28N 54°51' W 005°48'0 0.0
2019-Sep-12 12:58N 54°51' W 005°48'711.0
2019-Sep-12 12:21N 54°54' W 005°37'1417.7
2019-Sep-12 11:35N 54°60' W 005°16'117.3
2019-Sep-12 11:30N 55°01' W 005°14'1 0.3
2019-Sep-12 08:17N 55°01' W 005°12'1417.9
2019-Sep-12 07:30N 54°54' W 005°34'817.2
2019-Sep-12 07:00N 54°51' W 005°48'0 0.4
2019-Sep-12 06:28N 54°51' W 005°48'0 0.0
2019-Sep-12 05:55N 54°51' W 005°48'0 0.0
2019-Sep-12 05:02N 54°51' W 005°48'0 0.4
2019-Sep-12 04:58N 54°51' W 005°48'21 4.3
2019-Sep-12 00:05N 55°00' W 005°15'522.0
2019-Sep-11 23:51N 54°59' W 005°23'1620.1
2019-Sep-11 23:03N 54°51' W 005°48'0 1.3
2019-Sep-11 23:00N 54°51' W 005°48'0 0.1
2019-Sep-11 22:12N 54°51' W 005°48'0 0.0
2019-Sep-11 20:58N 54°51' W 005°48'2017.5
2019-Sep-11 19:48N 55°01' W 005°17'3 0.8
2019-Sep-11 16:26N 55°01' W 005°12'2320.4
2019-Sep-11 15:19N 54°51' W 005°48'0 0.1
2019-Sep-11 14:07N 54°51' W 005°48'0 0.0
2019-Sep-11 13:28N 54°51' W 005°48'711.9
2019-Sep-11 12:54N 54°55' W 005°38'15 4.1
2019-Sep-11 09:18N 55°00' W 005°14'1421.6
2019-Sep-11 08:40N 54°54' W 005°36'719.5
2019-Sep-11 08:17N 54°51' W 005°48'0 0.5
2019-Sep-11 08:00N 54°51' W 005°48'0 0.0
2019-Sep-11 07:06N 54°51' W 005°48'0 0.0
2019-Sep-11 06:18N 54°51' W 005°48'0 0.0
2019-Sep-11 05:45N 54°51' W 005°48'711.9
2019-Sep-11 05:12N 54°54' W 005°38'1420.8
2019-Sep-11 04:33N 55°00' W 005°17'3 0.7
2019-Sep-11 00:33N 55°01' W 005°12'121.8
2019-Sep-11 00:30N 55°00' W 005°13'  
Track history (hours):
 
Tides and Currents Weather Stations Pressure Air Temp Water Temp Dewpoint Dewpoint Depression Visibility Wind Speed Wind Dir Waves Ship Positions

European Highlander

Operator: P&O Irish Sea Ltd

Last reported at 2019-Sep-21 00:20 UTC. Time now 2019-Sep-21 01:18 UTC.
Position N 55°01' W 005°12'.

Length 161 m; draft 5.5 m.

Type: Ship. MMSI: 311404000.

Date/timePositionNaut miles runAvg speedWind from/ knotsBaromVisibWave heightAir tempDewpointWater temp
2019-Sep-21 00:20N 55°01' W 005°12'716.6
2019-Sep-20 23:55N 54°58' W 005°22'716.3
2019-Sep-20 23:28N 54°55' W 005°34'915.7
2019-Sep-20 22:55N 54°51' W 005°48'0 0.2
2019-Sep-20 22:11N 54°51' W 005°48'0 0.0
2019-Sep-20 21:47N 54°51' W 005°48'0 0.0
2019-Sep-20 21:29N 54°51' W 005°48'0 0.0
2019-Sep-20 20:57N 54°51' W 005°48'611.0
2019-Sep-20 20:27N 54°54' W 005°40'1117.5
2019-Sep-20 19:51N 54°58' W 005°23'6 1.8
2019-Sep-20 16:14N 55°01' W 005°13'520.7
2019-Sep-20 16:00N 54°59' W 005°21'1020.2
2019-Sep-20 15:30N 54°55' W 005°37'714.9
2019-Sep-20 15:01N 54°51' W 005°48'0 0.1
2019-Sep-20 14:31N 54°51' W 005°48'0 0.0
2019-Sep-20 14:00N 54°51' W 005°48'0 0.0
2019-Sep-20 13:30N 54°51' W 005°48'0 0.0
2019-Sep-20 13:00N 54°51' W 005°48'4 8.8
2019-Sep-20 12:31N 54°53' W 005°42'918.2
2019-Sep-20 12:00N 54°57' W 005°27'4 1.0
2019-Sep-20 07:59N 54°59' W 005°21'918.1
2019-Sep-20 07:30N 54°55' W 005°35'816.7
2019-Sep-20 07:00N 54°51' W 005°48'0 0.4
2019-Sep-20 06:30N 54°51' W 005°48'0 0.0
2019-Sep-20 06:00N 54°51' W 005°48'0 0.0
2019-Sep-20 05:30N 54°51' W 005°48'0 0.0
2019-Sep-20 04:57N 54°51' W 005°48'612.4
2019-Sep-20 04:30N 54°54' W 005°40'1122.5
2019-Sep-20 04:00N 54°59' W 005°22'12 3.6
2019-Sep-20 00:47N 54°58' W 005°02'614.2
2019-Sep-20 00:22N 55°01' W 005°11'617.7
2019-Sep-20 00:00N 54°58' W 005°20'918.4
2019-Sep-19 23:30N 54°54' W 005°35'816.0
2019-Sep-19 23:01N 54°51' W 005°48'0 0.1
2019-Sep-19 22:07N 54°51' W 005°48'0 0.0
2019-Sep-19 21:55N 54°51' W 005°48'0 0.0
2019-Sep-19 21:10N 54°51' W 005°48'0 0.0
2019-Sep-19 20:54N 54°51' W 005°48'410.4
2019-Sep-19 20:30N 54°53' W 005°42'917.5
2019-Sep-19 20:00N 54°57' W 005°29'917.5
2019-Sep-19 19:30N 55°01' W 005°14'6 2.0
2019-Sep-19 16:35N 55°00' W 005°04'415.2
2019-Sep-19 16:20N 55°01' W 005°11'618.8
2019-Sep-19 16:01N 54°59' W 005°21'917.9
2019-Sep-19 15:30N 54°55' W 005°35'816.5
2019-Sep-19 15:00N 54°51' W 005°48'0 0.5
2019-Sep-19 14:29N 54°51' W 005°48'0 0.0
2019-Sep-19 14:00N 54°51' W 005°48'0 0.0
2019-Sep-19 13:30N 54°51' W 005°48'0 0.0
2019-Sep-19 12:53N 54°51' W 005°48'4 9.6
2019-Sep-19 12:30N 54°53' W 005°43'918.0
2019-Sep-19 12:00N 54°57' W 005°29'918.0
2019-Sep-19 11:30N 55°01' W 005°14'813.4
2019-Sep-19 10:54N 54°58' W 005°01'3 1.2
2019-Sep-19 08:30N 55°00' W 005°04'816.4
2019-Sep-19 08:00N 54°59' W 005°18'1020.8
2019-Sep-19 07:30N 54°55' W 005°35'817.0
2019-Sep-19 07:00N 54°51' W 005°48'0 0.1
2019-Sep-19 06:15N 54°51' W 005°48'0 0.0
2019-Sep-19 05:30N 54°51' W 005°48'1 1.4
2019-Sep-19 05:00N 54°52' W 005°48'1020.9
2019-Sep-19 04:30N 54°56' W 005°31'1121.7
2019-Sep-19 04:01N 55°01' W 005°14'815.7
2019-Sep-19 03:30N 54°58' W 005°01'0 0.1
2019-Sep-19 01:01N 54°58' W 005°01'411.2
2019-Sep-19 00:41N 55°01' W 005°05'418.1
2019-Sep-19 00:28N 55°01' W 005°12'1021.3
2019-Sep-19 00:00N 54°56' W 005°27'1222.1
2019-Sep-18 23:29N 54°52' W 005°46'2 4.0
2019-Sep-18 23:00N 54°51' W 005°48'0 0.0
2019-Sep-18 21:54N 54°51' W 005°48'0 0.0
2019-Sep-18 21:24N 54°51' W 005°48'0 0.0
2019-Sep-18 21:00N 54°51' W 005°48'1616.4
2019-Sep-18 20:01N 54°58' W 005°23'520.6
2019-Sep-18 19:47N 55°00' W 005°15'21 4.4
2019-Sep-18 15:01N 54°51' W 005°48'0 6.0
2019-Sep-18 15:00N 54°51' W 005°48'0 0.1
2019-Sep-18 14:10N 54°51' W 005°48'0 0.0
2019-Sep-18 13:50N 54°51' W 005°48'0 0.0
2019-Sep-18 13:28N 54°51' W 005°48'0 0.0
2019-Sep-18 12:59N 54°51' W 005°48'7 1.2
2019-Sep-18 07:25N 54°54' W 005°38'615.9
2019-Sep-18 07:00N 54°51' W 005°48'0 0.0
2019-Sep-18 05:00N 54°51' W 005°48'6 1.0
2019-Sep-17 23:35N 54°53' W 005°39'518.8
2019-Sep-17 23:17N 54°51' W 005°48'0 0.3
2019-Sep-17 22:50N 54°51' W 005°48'0 0.0
2019-Sep-17 21:06N 54°51' W 005°48'1 4.8
2019-Sep-17 20:59N 54°51' W 005°48'21 4.4
2019-Sep-17 16:16N 55°01' W 005°15'520.9
2019-Sep-17 16:00N 54°58' W 005°24'1518.3
2019-Sep-17 15:09N 54°51' W 005°48'0 0.6
2019-Sep-17 14:55N 54°51' W 005°48'0 0.0
2019-Sep-17 14:27N 54°51' W 005°48'0 0.0
2019-Sep-17 13:59N 54°51' W 005°48'0 0.0
2019-Sep-17 13:28N 54°51' W 005°48'0 0.0
2019-Sep-17 12:57N 54°51' W 005°48'21 4.9
2019-Sep-17 08:35N 55°00' W 005°15'1421.7
2019-Sep-17 07:56N 54°54' W 005°37'716.3
2019-Sep-17 07:30N 54°51' W 005°48'0 0.0
2019-Sep-17 05:07N 54°51' W 005°48'0 0.7
2019-Sep-17 05:00N 54°51' W 005°48'916.8
2019-Sep-17 04:27N 54°56' W 005°35'1121.5
2019-Sep-17 03:55N 55°00' W 005°16'3 0.9
2019-Sep-17 00:17N 55°01' W 005°11'2021.5
2019-Sep-16 23:23N 54°53' W 005°41'411.3
2019-Sep-16 23:00N 54°51' W 005°48'0 0.0
2019-Sep-16 22:30N 54°51' W 005°48'0 0.0
2019-Sep-16 20:52N 54°51' W 005°48'21 4.4
2019-Sep-16 16:11N 55°00' W 005°16'2118.6
2019-Sep-16 15:04N 54°51' W 005°48'0 1.3
2019-Sep-16 14:59N 54°51' W 005°48'0 0.0
2019-Sep-16 14:21N 54°51' W 005°48'0 0.0
2019-Sep-16 12:52N 54°51' W 005°48'713.0
2019-Sep-16 12:21N 54°54' W 005°38'2 0.5
2019-Sep-16 07:37N 54°55' W 005°34'421.3
2019-Sep-16 07:26N 54°53' W 005°40'511.9
2019-Sep-16 07:00N 54°51' W 005°48'0 0.0
2019-Sep-16 06:27N 54°51' W 005°48'0 0.0
2019-Sep-16 05:57N 54°51' W 005°48'0 0.0
2019-Sep-16 05:18N 54°51' W 005°48'0 0.0
2019-Sep-16 04:58N 54°51' W 005°48'4 8.7
2019-Sep-16 04:27N 54°53' W 005°41'1018.4
2019-Sep-16 03:55N 54°58' W 005°26'817.7
2019-Sep-16 03:28N 55°02' W 005°14'8 2.8
2019-Sep-16 00:45N 54°58' W 005°02'714.6
2019-Sep-16 00:17N 55°01' W 005°13'618.4
2019-Sep-15 23:57N 54°58' W 005°23'818.3
2019-Sep-15 23:30N 54°54' W 005°35'816.0
2019-Sep-15 23:01N 54°51' W 005°48'0 0.2
2019-Sep-15 22:23N 54°51' W 005°48'0 0.0
2019-Sep-15 21:56N 54°51' W 005°48'0 0.0
2019-Sep-15 20:41N 54°51' W 005°48'20 4.5
2019-Sep-15 16:11N 54°60' W 005°16'521.0
2019-Sep-15 15:56N 54°58' W 005°25'1020.5
2019-Sep-15 15:28N 54°54' W 005°40'511.5
2019-Sep-15 14:59N 54°51' W 005°48'0 0.0
2019-Sep-15 13:39N 54°51' W 005°48'0 0.0
2019-Sep-15 13:30N 54°51' W 005°48'0 0.0
2019-Sep-15 12:49N 54°51' W 005°48'22 4.8
2019-Sep-15 08:15N 55°01' W 005°14'1218.0
2019-Sep-15 07:34N 54°55' W 005°33'318.9
2019-Sep-15 07:24N 54°54' W 005°37'716.4
2019-Sep-15 07:00N 54°51' W 005°48'0 0.2
2019-Sep-15 06:23N 54°51' W 005°48'0 0.0
2019-Sep-15 05:56N 54°51' W 005°48'0 0.0
2019-Sep-15 05:23N 54°51' W 005°48'0 0.0
2019-Sep-15 04:55N 54°51' W 005°48'912.5
2019-Sep-15 04:12N 54°55' W 005°34'617.4
2019-Sep-15 03:52N 54°58' W 005°25'8 2.4
2019-Sep-15 00:17N 55°01' W 005°11'2018.6
2019-Sep-14 23:11N 54°53' W 005°44'314.2
2019-Sep-14 22:59N 54°51' W 005°48'0 0.1
2019-Sep-14 20:44N 54°51' W 005°48'21 4.7
2019-Sep-14 16:15N 55°00' W 005°15'518.3
2019-Sep-14 15:57N 54°58' W 005°24'818.1
2019-Sep-14 15:30N 54°54' W 005°37'714.5
2019-Sep-14 15:00N 54°51' W 005°48'0 0.2
2019-Sep-14 14:29N 54°51' W 005°48'0 0.0
2019-Sep-14 13:55N 54°51' W 005°48'0 0.0
2019-Sep-14 13:28N 54°51' W 005°48'0 0.0
2019-Sep-14 12:58N 54°51' W 005°48'1513.3
2019-Sep-14 11:51N 54°58' W 005°25'8 2.1
2019-Sep-14 08:08N 55°01' W 005°13'218.0
2019-Sep-14 08:00N 54°60' W 005°17'1018.9
2019-Sep-14 07:29N 54°56' W 005°33'1017.9
2019-Sep-14 06:56N 54°51' W 005°48'0 0.1
2019-Sep-14 05:43N 54°51' W 005°48'0 0.0
2019-Sep-14 05:28N 54°51' W 005°48'0 0.0
2019-Sep-14 04:58N 54°51' W 005°48'511.2
2019-Sep-14 04:29N 54°54' W 005°40'917.2
2019-Sep-14 03:56N 54°58' W 005°25'5 1.4
2019-Sep-14 00:03N 55°00' W 005°17'120.7
2019-Sep-14 00:00N 54°60' W 005°18'1220.4
2019-Sep-13 23:25N 54°55' W 005°37'716.1
2019-Sep-13 22:58N 54°51' W 005°48'0 0.1
2019-Sep-13 21:01N 54°51' W 005°48'0 0.0
2019-Sep-13 21:00N 54°51' W 005°48'612.6
2019-Sep-13 20:29N 54°54' W 005°38'15 3.5
2019-Sep-13 16:15N 55°00' W 005°15'1417.9
2019-Sep-13 15:26N 54°54' W 005°37'715.6
2019-Sep-13 15:00N 54°51' W 005°48'0 0.1
2019-Sep-13 12:50N 54°51' W 005°48'21 4.5
2019-Sep-13 08:09N 55°00' W 005°15'1120.2
2019-Sep-13 07:35N 54°55' W 005°33'321.0
2019-Sep-13 07:26N 54°54' W 005°37'715.1
2019-Sep-13 07:00N 54°51' W 005°48'0 0.0
2019-Sep-13 05:35N 54°51' W 005°48'0 0.0
2019-Sep-13 05:25N 54°51' W 005°48'410.3
2019-Sep-13 04:59N 54°53' W 005°42'1021.3
2019-Sep-13 04:30N 54°58' W 005°25'7 2.0
2019-Sep-13 01:00N 55°01' W 005°14'2220.6
2019-Sep-12 23:57N 54°51' W 005°48'0 0.2
2019-Sep-12 23:25N 54°51' W 005°48'0 0.0
2019-Sep-12 21:01N 54°51' W 005°48'0 0.5
2019-Sep-12 20:56N 54°51' W 005°48'21 4.6
2019-Sep-12 16:18N 55°00' W 005°14'1217.7
2019-Sep-12 15:37N 54°55' W 005°34'916.1
2019-Sep-12 15:03N 54°51' W 005°48'0 3.2
2019-Sep-12 15:00N 54°51' W 005°48'0 0.1
2019-Sep-12 14:22N 54°51' W 005°48'0 0.0
2019-Sep-12 13:31N 54°51' W 005°48'0 0.0
2019-Sep-12 13:28N 54°51' W 005°48'0 0.0
2019-Sep-12 12:58N 54°51' W 005°48'711.0
2019-Sep-12 12:21N 54°54' W 005°37'1417.7
2019-Sep-12 11:35N 54°60' W 005°16'117.3
2019-Sep-12 11:30N 55°01' W 005°14'1 0.3
2019-Sep-12 08:17N 55°01' W 005°12'1417.9
2019-Sep-12 07:30N 54°54' W 005°34'817.2
2019-Sep-12 07:00N 54°51' W 005°48'0 0.4
2019-Sep-12 06:28N 54°51' W 005°48'0 0.0
2019-Sep-12 05:55N 54°51' W 005°48'0 0.0
2019-Sep-12 05:02N 54°51' W 005°48'0 0.4
2019-Sep-12 04:58N 54°51' W 005°48'21 4.3
2019-Sep-12 00:05N 55°00' W 005°15'522.0
2019-Sep-11 23:51N 54°59' W 005°23'1620.1
2019-Sep-11 23:03N 54°51' W 005°48'0 1.3
2019-Sep-11 23:00N 54°51' W 005°48'0 0.1
2019-Sep-11 22:12N 54°51' W 005°48'0 0.0
2019-Sep-11 20:58N 54°51' W 005°48'2017.5
2019-Sep-11 19:48N 55°01' W 005°17'3 0.8
2019-Sep-11 16:26N 55°01' W 005°12'2320.4
2019-Sep-11 15:19N 54°51' W 005°48'0 0.1
2019-Sep-11 14:07N 54°51' W 005°48'0 0.0
2019-Sep-11 13:28N 54°51' W 005°48'711.9
2019-Sep-11 12:54N 54°55' W 005°38'15 4.1
2019-Sep-11 09:18N 55°00' W 005°14'1421.6
2019-Sep-11 08:40N 54°54' W 005°36'719.5
2019-Sep-11 08:17N 54°51' W 005°48'0 0.5
2019-Sep-11 08:00N 54°51' W 005°48'0 0.0
2019-Sep-11 07:06N 54°51' W 005°48'0 0.0
2019-Sep-11 06:18N 54°51' W 005°48'0 0.0
2019-Sep-11 05:45N 54°51' W 005°48'711.9
2019-Sep-11 05:12N 54°54' W 005°38'1420.8
2019-Sep-11 04:33N 55°00' W 005°17'3 0.7
2019-Sep-11 00:33N 55°01' W 005°12'121.8
2019-Sep-11 00:30N 55°00' W 005°13'  

Dump ship's entire track history